Time;durP1;ratioP1;P1;durP2;ratioP2;P2;SDS_P1;SDS_P2;PMS_P1;PMS_P2;Temp;Humidity;BMP_temperature;BMP_pressure;BME280_temperature;BME280_humidity;BME280_pressure;Samples;Min_cycle;Max_cycle;Signal;HPM_P1;HPM_P2
2022/08/27 03:51:46;;;;;;;15.23;7.20;;;19.00;99.90;;;;;;5311770;27;20794;-77
2022/08/27 03:54:18;;;;;;;18.40;6.70;;;19.00;99.90;;;;;;5289625;28;20485;-78
2022/08/27 03:56:50;;;;;;;11.55;5.68;;;19.10;99.90;;;;;;5285842;28;20077;-77
2022/08/27 03:59:25;;;;;;;15.90;6.03;;;19.20;99.90;;;;;;5288348;28;20023;-78
2022/08/27 04:01:56;;;;;;;16.35;6.07;;;19.30;99.90;;;;;;5285033;28;20074;-73
2022/08/27 04:04:28;;;;;;;15.15;6.30;;;19.50;99.90;;;;;;5289604;28;20068;-77
2022/08/27 04:06:59;;;;;;;15.93;7.88;;;19.40;99.90;;;;;;5284465;28;20130;-76
2022/08/27 04:09:30;;;;;;;15.15;6.50;;;19.40;99.90;;;;;;5291490;28;20107;-73
2022/08/27 04:12:01;;;;;;;17.98;7.00;;;19.40;99.90;;;;;;5295533;28;20085;-76
2022/08/27 04:14:33;;;;;;;16.13;7.65;;;19.40;99.90;;;;;;5295368;28;20015;-78
2022/08/27 04:17:04;;;;;;;18.60;6.40;;;19.50;99.90;;;;;;5298357;27;20069;-77
2022/08/27 04:19:35;;;;;;;18.33;7.20;;;19.60;99.90;;;;;;5298463;28;20031;-78
2022/08/27 04:22:06;;;;;;;18.80;6.97;;;19.50;99.90;;;;;;5287116;27;20394;-77
2022/08/27 04:24:37;;;;;;;18.23;7.15;;;19.80;99.90;;;;;;5290815;27;20020;-78
2022/08/27 04:27:10;;;;;;;19.15;6.82;;;19.80;99.90;;;;;;5294548;28;20402;-74
2022/08/27 04:29:41;;;;;;;11.25;6.20;;;19.90;99.90;;;;;;5292238;27;20020;-73
2022/08/27 04:32:12;;;;;;;11.35;6.82;;;20.10;99.90;;;;;;5301271;28;20023;-75
2022/08/27 04:34:43;;;;;;;12.50;5.95;;;20.20;99.90;;;;;;5290633;28;20106;-72
2022/08/27 04:37:14;;;;;;;13.27;6.60;;;20.20;99.90;;;;;;5289011;27;20028;-75
2022/08/27 04:39:44;;;;;;;15.23;6.03;;;20.30;99.90;;;;;;5286951;28;20395;-77
2022/08/27 04:42:18;;;;;;;15.75;5.65;;;20.50;99.90;;;;;;5285013;28;20356;-77
2022/08/27 04:44:49;;;;;;;16.40;6.18;;;20.60;99.90;;;;;;5290094;28;20073;-76
2022/08/27 04:47:20;;;;;;;14.13;6.72;;;20.90;99.90;;;;;;5284801;28;20393;-75
2022/08/27 04:49:51;;;;;;;13.65;7.13;;;20.90;99.90;;;;;;5299766;28;20152;-75
2022/08/27 04:52:22;;;;;;;14.88;6.70;;;20.90;99.90;;;;;;5276596;27;20054;-78
2022/08/27 04:54:53;;;;;;;16.20;7.15;;;21.00;99.90;;;;;;5278391;28;20078;-76
2022/08/27 04:57:24;;;;;;;14.98;6.88;;;21.10;99.90;;;;;;5277256;28;20026;-72
2022/08/27 04:59:56;;;;;;;15.95;6.80;;;21.10;99.90;;;;;;5270329;28;20036;-77
2022/08/27 05:02:27;;;;;;;14.35;5.95;;;21.30;99.90;;;;;;5273884;28;20020;-78
2022/08/27 05:04:58;;;;;;;17.30;7.38;;;21.40;99.90;;;;;;5282474;27;20464;-78
2022/08/27 05:07:29;;;;;;;16.02;6.80;;;21.50;99.90;;;;;;5274371;28;20032;-77
2022/08/27 05:10:00;;;;;;;14.38;6.90;;;21.70;99.90;;;;;;5278714;28;20035;-79
2022/08/27 05:12:31;;;;;;;20.77;7.43;;;21.60;99.90;;;;;;5276594;28;20073;-76
2022/08/27 05:15:02;;;;;;;15.32;6.38;;;21.80;99.90;;;;;;5279054;28;20794;-78
2022/08/27 05:17:33;;;;;;;15.18;6.05;;;21.90;99.90;;;;;;5270569;28;20063;-74
2022/08/27 05:20:04;;;;;;;14.25;5.93;;;22.00;99.90;;;;;;5270966;28;20079;-75
2022/08/27 05:22:35;;;;;;;17.60;6.38;;;22.20;99.90;;;;;;5277499;28;20069;-70
2022/08/27 05:25:06;;;;;;;11.90;6.18;;;22.20;99.90;;;;;;5270063;28;20455;-72
2022/08/27 05:27:37;;;;;;;16.33;6.40;;;22.30;99.90;;;;;;5280775;28;20053;-78
2022/08/27 05:30:09;;;;;;;16.40;5.78;;;22.40;99.90;;;;;;5270939;28;20028;-78
2022/08/27 05:32:39;;;;;;;21.85;6.20;;;22.50;99.90;;;;;;5286181;28;20398;-76
2022/08/27 05:35:10;;;;;;;17.33;5.45;;;22.60;99.90;;;;;;5268564;28;20032;-73
2022/08/27 05:37:41;;;;;;;13.95;5.30;;;22.60;99.90;;;;;;5273595;28;20058;-78
2022/08/27 05:40:12;;;;;;;17.33;5.60;;;22.70;99.90;;;;;;5279855;28;20036;-72
2022/08/27 05:42:43;;;;;;;12.32;4.82;;;22.90;99.90;;;;;;5277631;28;20020;-73
2022/08/27 05:45:15;;;;;;;16.48;5.80;;;23.10;99.90;;;;;;5277332;28;20424;-76
2022/08/27 05:47:46;;;;;;;16.05;5.53;;;23.30;99.90;;;;;;5269636;28;20016;-78
2022/08/27 05:50:17;;;;;;;20.08;4.90;;;23.30;99.90;;;;;;5274429;28;20040;-78
2022/08/27 05:52:49;;;;;;;12.38;5.22;;;23.40;99.90;;;;;;5276105;28;20024;-75
2022/08/27 05:55:20;;;;;;;10.38;4.47;;;23.30;99.90;;;;;;5279303;28;20054;-73
2022/08/27 05:57:51;;;;;;;16.38;5.25;;;23.40;99.90;;;;;;5269290;28;20020;-78
2022/08/27 06:03:11;;;;;;;20.67;4.70;;;23.80;99.90;;;;;;5278011;28;20049;-75
2022/08/27 06:05:42;;;;;;;17.58;5.55;;;23.90;99.90;;;;;;5286989;28;20036;-74
2022/08/27 06:08:13;;;;;;;13.73;4.43;;;24.10;99.90;;;;;;5271451;28;20020;-76
2022/08/27 06:10:44;;;;;;;14.00;5.18;;;24.50;99.90;;;;;;5274616;28;20027;-78
2022/08/27 06:13:15;;;;;;;19.52;5.85;;;24.40;99.90;;;;;;5279483;28;20455;-78
2022/08/27 06:15:46;;;;;;;13.35;4.57;;;24.70;99.90;;;;;;5281948;28;20015;-78
2022/08/27 06:18:17;;;;;;;17.23;4.80;;;24.80;99.90;;;;;;5270982;28;20056;-77
2022/08/27 06:20:47;;;;;;;12.32;4.38;;;24.80;99.90;;;;;;5273186;28;20541;-76
2022/08/27 06:23:19;;;;;;;14.88;4.53;;;25.00;99.90;;;;;;5269300;28;20077;-76
2022/08/27 06:25:50;;;;;;;16.27;4.65;;;25.00;99.90;;;;;;5273292;28;20027;-76
2022/08/27 06:28:22;;;;;;;13.07;4.25;;;25.20;99.90;;;;;;5279005;28;20034;-76
2022/08/27 06:30:53;;;;;;;17.27;4.63;;;25.30;99.90;;;;;;5275116;28;20028;-76
2022/08/27 06:33:24;;;;;;;14.20;4.40;;;25.40;99.90;;;;;;5272566;28;20081;-77
2022/08/27 06:36:01;;;;;;;10.13;3.70;;;25.30;99.90;;;;;;5269585;28;20058;-77
2022/08/27 06:38:33;;;;;;;15.27;4.30;;;25.60;99.90;;;;;;5273932;28;20037;-76
2022/08/27 06:41:06;;;;;;;17.80;4.10;;;25.70;99.90;;;;;;5282747;28;20042;-77
2022/08/27 06:43:39;;;;;;;17.40;4.00;;;25.80;99.90;;;;;;5274709;28;20016;-77
2022/08/27 06:46:16;;;;;;;19.52;3.63;;;26.10;99.90;;;;;;5273500;28;20089;-77
2022/08/27 06:48:48;;;;;;;17.10;4.18;;;25.80;99.90;;;;;;5283887;28;20042;-77
2022/08/27 06:51:25;;;;;;;22.55;5.30;;;26.00;99.90;;;;;;5279331;28;20056;-77
2022/08/27 06:53:57;;;;;;;15.20;4.47;;;26.20;99.90;;;;;;5274169;28;20028;-77
2022/08/27 06:56:29;;;;;;;17.00;3.78;;;26.20;99.90;;;;;;5280624;28;20042;-77
2022/08/27 06:59:03;;;;;;;14.30;3.60;;;26.30;99.90;;;;;;5272631;28;20038;-77
2022/08/27 07:01:37;;;;;;;14.15;3.60;;;26.40;99.90;;;;;;5278829;28;20035;-77
2022/08/27 07:04:11;;;;;;;14.00;3.78;;;26.50;99.90;;;;;;5269775;28;20012;-77
2022/08/27 07:06:42;;;;;;;12.43;3.40;;;26.60;99.90;;;;;;5273565;28;20109;-76
2022/08/27 07:09:13;;;;;;;20.63;4.15;;;26.70;99.90;;;;;;5278319;28;20086;-76
2022/08/27 07:11:44;;;;;;;16.60;3.85;;;26.80;99.90;;;;;;5275163;28;20016;-77
2022/08/27 07:14:15;;;;;;;20.17;3.60;;;27.00;99.90;;;;;;5282258;28;20020;-77
2022/08/27 07:16:46;;;;;;;14.73;3.75;;;27.00;99.90;;;;;;5283265;28;20020;-77
2022/08/27 07:19:17;;;;;;;13.05;3.20;;;27.20;99.90;;;;;;5268433;28;20368;-77
2022/08/27 07:21:48;;;;;;;14.20;3.70;;;26.80;99.90;;;;;;5268499;28;20044;-77
2022/08/27 07:24:19;;;;;;;14.23;3.28;;;26.80;99.90;;;;;;5270597;28;20028;-77
2022/08/27 07:26:49;;;;;;;17.10;3.75;;;27.00;99.90;;;;;;5284911;28;20386;-77
2022/08/27 07:29:20;;;;;;;871.90;147.63;;;26.80;99.90;;;;;;5278287;28;20035;-77
2022/08/27 07:31:51;;;;;;;19.42;3.70;;;26.90;99.90;;;;;;5268133;28;20118;-77
2022/08/27 07:34:22;;;;;;;16.35;3.78;;;26.70;99.90;;;;;;5268283;28;20028;-77
2022/08/27 07:36:53;;;;;;;14.25;3.78;;;26.70;99.90;;;;;;5268212;28;20028;-77
2022/08/27 07:39:24;;;;;;;957.80;71.03;;;26.80;99.90;;;;;;5266465;28;20021;-77
2022/08/27 07:44:45;;;;;;;21.48;5.50;;;27.00;99.90;;;;;;5265760;28;20043;-76
2022/08/27 07:47:17;;;;;;;18.67;4.07;;;26.90;99.90;;;;;;5278290;28;20023;-76
2022/08/27 07:49:48;;;;;;;13.40;3.05;;;26.50;99.90;;;;;;5281618;28;20075;-76
2022/08/27 07:52:19;;;;;;;16.05;3.70;;;27.10;99.90;;;;;;5269948;28;20050;-75
2022/08/27 07:54:50;;;;;;;1092.18;147.43;;;27.30;99.90;;;;;;5268166;28;20074;-77
2022/08/27 07:57:21;;;;;;;19.48;3.60;;;27.20;99.90;;;;;;5268362;28;20095;-76
2022/08/27 07:59:52;;;;;;;16.50;3.10;;;27.40;99.90;;;;;;5267531;28;20393;-76
2022/08/27 08:02:23;;;;;;;19.60;3.53;;;27.20;99.90;;;;;;5286028;28;20020;-76
2022/08/27 08:04:54;;;;;;;19.65;4.70;;;27.20;99.90;;;;;;5268239;28;20479;-77
2022/08/27 08:07:25;;;;;;;16.75;4.68;;;27.50;99.90;;;;;;5279366;28;20031;-76
2022/08/27 08:12:38;;;;;;;19.58;3.33;;;28.00;99.90;;;;;;5240044;22;20057;-77
2022/08/27 08:15:10;;;;;;;17.98;3.20;;;27.80;99.90;;;;;;5203555;28;20091;-77
2022/08/27 08:17:41;;;;;;;17.55;3.63;;;27.90;99.90;;;;;;5206129;28;20543;-78
2022/08/27 08:20:12;;;;;;;11.65;3.38;;;28.00;99.90;;;;;;5220156;28;20038;-76
2022/08/27 08:22:43;;;;;;;15.85;3.47;;;27.80;99.90;;;;;;5213107;28;20071;-77
2022/08/27 08:25:15;;;;;;;16.98;3.40;;;27.80;99.90;;;;;;5208266;28;20488;-75
2022/08/27 08:27:46;;;;;;;17.27;3.53;;;28.30;99.90;;;;;;5208525;28;20068;-77
2022/08/27 08:30:17;;;;;;;17.35;3.88;;;28.50;99.90;;;;;;5209894;28;20111;-76
2022/08/27 08:32:49;;;;;;;18.80;3.20;;;28.80;99.90;;;;;;5229980;28;20540;-76
2022/08/27 08:35:20;;;;;;;16.90;2.97;;;28.80;99.90;;;;;;5213602;28;20108;-76
2022/08/27 08:37:50;;;;;;;20.65;3.53;;;28.70;99.90;;;;;;5220121;28;20112;-76
2022/08/27 08:40:29;;;;;;;14.50;3.40;;;28.10;99.90;;;;;;5207509;28;20045;-76
2022/08/27 08:43:02;;;;;;;21.33;3.45;;;28.20;99.90;;;;;;5206372;28;20029;-75
2022/08/27 08:45:36;;;;;;;13.23;3.67;;;28.30;99.90;;;;;;5208999;28;20029;-76
2022/08/27 08:48:17;;;;;;;18.35;3.28;;;28.50;99.90;;;;;;5208970;28;20409;-76
2022/08/27 08:50:56;;;;;;;19.70;4.07;;;28.50;99.90;;;;;;5208841;28;20377;-76
2022/08/27 08:53:46;;;;;;;669.55;59.92;;;29.00;99.90;;;;;;5208842;28;20029;-76
2022/08/27 08:56:51;;;;;;;31.55;18.27;;;29.10;99.90;;;;;;5204093;28;20083;-76
2022/08/27 08:59:36;;;;;;;20.17;3.75;;;29.10;99.90;;;;;;5196194;28;20049;-76
2022/08/27 09:02:11;;;;;;;17.83;3.88;;;28.90;99.90;;;;;;5191005;28;20025;-76
2022/08/27 09:04:42;;;;;;;28.80;4.13;;;29.20;99.90;;;;;;5201263;28;20030;-77
2022/08/27 09:07:37;;;;;;;18.40;3.92;;;29.80;99.90;;;;;;5192352;28;20489;-76
2022/08/27 09:10:20;;;;;;;19.23;3.80;;;29.60;99.90;;;;;;5177500;28;20065;-76
2022/08/27 09:12:54;;;;;;;24.30;3.78;;;29.80;99.90;;;;;;5199568;28;20092;-75
2022/08/27 09:15:30;;;;;;;20.67;4.28;;;29.90;99.90;;;;;;5207226;28;20025;-76
2022/08/27 09:18:09;;;;;;;21.52;4.22;;;29.50;99.90;;;;;;5207804;28;20032;-75
2022/08/27 09:20:45;;;;;;;14.20;3.85;;;29.60;99.90;;;;;;5208311;28;20421;-76
2022/08/27 09:23:27;;;;;;;22.63;4.03;;;30.00;99.90;;;;;;5206925;28;20021;-75
2022/08/27 09:25:58;;;;;;;13.75;3.50;;;30.20;99.90;;;;;;5208199;28;20025;-75
2022/08/27 09:31:20;;;;;;;18.77;3.28;;;30.20;99.90;;;;;;5200390;28;20068;-76
2022/08/27 09:33:50;;;;;;;11.85;3.63;;;30.30;99.90;;;;;;5191181;28;20510;-77
2022/08/27 09:36:21;;;;;;;18.55;3.40;;;30.40;99.90;;;;;;5189302;28;20267;-76
2022/08/27 09:39:03;;;;;;;16.65;3.65;;;30.60;99.90;;;;;;5200843;28;20044;-78
2022/08/27 09:41:46;;;;;;;57.33;40.45;;;30.30;99.90;;;;;;5186477;28;20038;-79
2022/08/27 09:44:19;;;;;;;15.68;3.78;;;30.40;99.90;;;;;;5201459;28;20030;-76
2022/08/27 09:46:56;;;;;;;9.98;3.45;;;29.70;99.90;;;;;;5193277;28;20110;-76
2022/08/27 09:49:28;;;;;;;16.25;3.35;;;30.30;99.90;;;;;;5203160;28;20021;-76
2022/08/27 09:52:00;;;;;;;15.80;3.40;;;30.40;99.90;;;;;;5207329;28;20025;-75
2022/08/27 09:54:43;;;;;;;20.50;3.70;;;30.40;99.90;;;;;;5202875;28;20057;-75
2022/08/27 09:57:30;;;;;;;14.32;3.30;;;30.50;99.90;;;;;;5199527;28;20029;-76
2022/08/27 10:00:05;;;;;;;103.10;6.00;;;30.70;99.90;;;;;;5201342;28;20496;-76
2022/08/27 10:02:36;;;;;;;22.00;3.83;;;30.40;99.90;;;;;;5207359;28;20029;-76
2022/08/27 10:05:17;;;;;;;15.80;3.30;;;30.60;99.90;;;;;;5206301;28;20026;-76
2022/08/27 10:07:58;;;;;;;22.55;3.92;;;30.90;99.90;;;;;;5197183;28;20029;-76
2022/08/27 10:10:53;;;;;;;16.65;3.83;;;30.80;99.90;;;;;;5188408;28;20052;-76
2022/08/27 10:13:35;;;;;;;153.98;18.08;;;31.00;99.90;;;;;;5196876;28;20038;-75
2022/08/27 10:16:35;;;;;;;20.98;3.72;;;31.00;99.90;;;;;;5172983;28;20025;-77
2022/08/27 10:19:28;;;;;;;21.98;3.95;;;31.00;99.90;;;;;;5181816;28;20026;-76
2022/08/27 10:22:20;;;;;;;16.60;3.35;;;31.20;99.90;;;;;;5205069;28;20040;-76
2022/08/27 10:25:26;;;;;;;16.98;3.20;;;30.90;99.90;;;;;;5190000;28;20033;-76
2022/08/27 10:28:41;;;;;;;16.00;2.97;;;31.30;99.90;;;;;;5168860;28;20029;-76
2022/08/27 10:31:12;;;;;;;21.98;4.10;;;30.60;99.90;;;;;;5199695;28;20044;-76
2022/08/27 10:34:14;;;;;;;553.70;77.82;;;31.00;99.90;;;;;;5203141;28;20026;-76
2022/08/27 10:37:21;;;;;;;17.70;3.70;;;31.10;99.90;;;;;;5203214;28;20030;-75
2022/08/27 10:40:28;;;;;;;21.67;3.50;;;31.40;99.90;;;;;;5205344;28;20488;-74
2022/08/27 10:43:21;;;;;;;14.70;3.60;;;31.00;99.90;;;;;;5193119;28;20037;-75
2022/08/27 10:46:20;;;;;;;17.27;3.30;;;31.30;99.90;;;;;;5189709;28;20022;-74
2022/08/27 10:49:00;;;;;;;16.60;3.20;;;31.60;99.90;;;;;;5198416;28;20037;-76
2022/08/27 10:51:42;;;;;;;17.92;3.80;;;31.40;99.90;;;;;;5205240;28;20069;-75
2022/08/27 10:54:25;;;;;;;17.25;3.28;;;31.40;99.90;;;;;;5183761;28;20022;-76
2022/08/27 10:57:06;;;;;;;20.58;3.72;;;31.60;99.90;;;;;;5205461;28;20029;-76
2022/08/27 11:00:10;;;;;;;18.15;3.70;;;31.40;99.90;;;;;;5193208;28;20028;-76
2022/08/27 11:02:46;;;;;;;23.13;4.35;;;31.60;99.90;;;;;;5206450;28;20427;-76
2022/08/27 11:05:19;;;;;;;27.92;4.05;;;31.10;99.90;;;;;;5190750;28;20454;-76
2022/08/27 11:08:26;;;;;;;21.20;3.83;;;31.40;99.90;;;;;;5199928;28;20030;-76
2022/08/27 11:11:21;;;;;;;17.08;4.00;;;31.70;99.90;;;;;;5192736;28;20045;-76
2022/08/27 11:13:57;;;;;;;119.85;27.30;;;31.60;99.90;;;;;;5205111;28;20473;-76
2022/08/27 11:17:02;;;;;;;20.08;4.75;;;31.40;99.90;;;;;;5201736;28;20450;-77
2022/08/27 11:19:57;;;;;;;26.45;3.95;;;31.40;99.90;;;;;;5199938;28;20041;-76
2022/08/27 11:22:49;;;;;;;18.92;3.40;;;31.70;99.90;;;;;;5202489;28;20819;-76
2022/08/27 11:25:20;;;;;;;15.77;3.28;;;31.80;99.90;;;;;;5205631;28;20083;-77
2022/08/27 11:27:53;;;;;;;20.08;3.70;;;31.40;99.90;;;;;;5191797;28;20026;-75
2022/08/27 11:30:33;;;;;;;20.85;3.63;;;31.90;99.90;;;;;;5192027;28;20049;-76
2022/08/27 11:33:16;;;;;;;208.38;10.85;;;32.30;99.90;;;;;;5197456;28;20796;-74
2022/08/27 11:36:05;;;;;;;452.50;28.48;;;32.00;99.90;;;;;;5202419;28;20160;-76
2022/08/27 11:38:51;;;;;;;19.10;3.75;;;31.80;99.90;;;;;;5193443;28;20022;-76
2022/08/27 11:41:40;;;;;;;27.20;3.80;;;32.30;99.90;;;;;;5187010;28;20045;-76
2022/08/27 11:44:21;;;;;;;219.70;14.73;;;32.00;99.90;;;;;;5197141;28;20353;-76
2022/08/27 11:47:13;;;;;;;17.65;3.47;;;31.70;99.90;;;;;;5204828;28;20029;-76
2022/08/27 11:50:04;;;;;;;15.73;3.35;;;32.10;99.90;;;;;;5189010;28;20041;-76
2022/08/27 11:52:39;;;;;;;15.98;3.70;;;32.40;99.90;;;;;;5182703;28;20038;-76
2022/08/27 11:55:26;;;;;;;18.48;3.05;;;32.50;99.90;;;;;;5198310;28;20103;-76
2022/08/27 11:58:08;;;;;;;16.77;3.28;;;32.60;99.90;;;;;;5205565;28;20033;-76
2022/08/27 12:00:41;;;;;;;24.55;3.78;;;32.60;99.90;;;;;;5205276;28;20076;-74
2022/08/27 12:03:18;;;;;;;16.63;3.20;;;32.40;99.90;;;;;;5209313;28;20049;-75
2022/08/27 12:06:08;;;;;;;147.75;8.02;;;32.10;99.90;;;;;;5190666;28;20381;-75
2022/08/27 12:08:39;;;;;;;16.02;3.28;;;31.70;99.90;;;;;;5204429;28;20104;-75
2022/08/27 12:11:22;;;;;;;17.98;2.80;;;31.80;99.90;;;;;;5206912;28;20136;-76
2022/08/27 12:14:08;;;;;;;20.70;3.65;;;31.60;99.90;;;;;;5203208;28;20029;-75
2022/08/27 12:17:10;;;;;;;15.13;3.55;;;31.10;99.90;;;;;;5208606;28;20045;-75
2022/08/27 12:20:05;;;;;;;15.30;3.30;;;31.80;99.90;;;;;;5208539;28;20054;-75
2022/08/27 12:25:36;;;;;;;16.05;3.92;;;32.40;99.90;;;;;;5192660;28;20091;-75
2022/08/27 12:28:08;;;;;;;397.30;23.60;;;32.50;99.90;;;;;;5205278;28;20022;-75
2022/08/27 12:30:48;;;;;;;21.77;4.30;;;32.10;99.90;;;;;;5208866;28;20485;-75
2022/08/27 12:33:28;;;;;;;19.88;3.83;;;31.60;99.90;;;;;;5209267;28;20057;-75
2022/08/27 12:36:14;;;;;;;140.75;11.27;;;31.80;99.90;;;;;;5207052;28;20037;-75
2022/08/27 12:38:52;;;;;;;18.35;3.45;;;32.30;99.90;;;;;;5208899;28;20105;-75
2022/08/27 12:41:36;;;;;;;16.10;3.47;;;32.20;99.90;;;;;;5203000;28;20107;-75
2022/08/27 12:44:09;;;;;;;17.95;3.42;;;32.50;99.90;;;;;;5186459;28;20025;-75
2022/08/27 12:46:53;;;;;;;22.05;4.20;;;32.50;99.90;;;;;;5208778;28;20033;-75
2022/08/27 12:49:40;;;;;;;16.95;3.47;;;32.40;99.90;;;;;;5208687;28;20028;-75
2022/08/27 12:52:36;;;;;;;20.60;4.03;;;32.50;99.90;;;;;;5207091;28;20029;-75
2022/08/27 12:55:38;;;;;;;17.83;3.33;;;31.90;99.90;;;;;;5207783;28;20030;-75
2022/08/27 12:58:37;;;;;;;14.35;4.03;;;31.40;99.90;;;;;;5177415;28;20120;-75
2022/08/27 13:01:27;;;;;;;23.52;4.82;;;30.90;99.90;;;;;;5208445;28;20039;-76
2022/08/27 13:03:59;;;;;;;29.00;4.68;;;30.20;99.90;;;;;;5205093;28;20084;-74
2022/08/27 13:06:33;;;;;;;34.08;6.20;;;30.00;99.90;;;;;;5207956;28;20025;-75
2022/08/27 13:09:07;;;;;;;27.25;3.97;;;29.70;99.90;;;;;;5208219;28;20536;-75
2022/08/27 13:11:48;;;;;;;15.77;3.80;;;29.70;99.90;;;;;;5201549;28;20115;-75
2022/08/27 13:14:20;;;;;;;92.30;5.78;;;29.50;99.90;;;;;;5192724;28;20021;-75
2022/08/27 13:17:04;;;;;;;37.60;4.75;;;29.30;99.90;;;;;;5208265;28;20101;-75
2022/08/27 13:19:50;;;;;;;15.77;4.05;;;29.10;99.90;;;;;;5208378;28;20052;-75
2022/08/27 13:22:24;;;;;;;13.30;4.43;;;28.80;99.90;;;;;;5187161;28;20018;-75
2022/08/27 13:24:55;;;;;;;19.70;4.18;;;28.50;99.90;;;;;;5204319;28;20035;-75
2022/08/27 13:27:30;;;;;;;21.13;3.95;;;28.50;99.90;;;;;;5207965;28;20021;-76
2022/08/27 13:30:06;;;;;;;128.13;9.10;;;28.50;99.90;;;;;;5207785;28;20101;-76
2022/08/27 13:32:39;;;;;;;22.83;3.97;;;28.80;99.90;;;;;;5205221;28;20021;-76
2022/08/27 13:35:10;;;;;;;21.80;5.13;;;28.50;99.90;;;;;;5206555;28;20025;-76
2022/08/27 13:37:48;;;;;;;189.63;24.40;;;28.80;99.90;;;;;;5206658;28;20484;-76
2022/08/27 13:40:49;;;;;;;20.10;3.75;;;29.00;99.90;;;;;;5205493;28;20103;-75
2022/08/27 13:43:25;;;;;;;18.25;3.13;;;29.10;99.90;;;;;;5196392;28;20032;-76
2022/08/27 13:45:57;;;;;;;18.60;3.97;;;29.10;99.90;;;;;;5206414;28;20021;-75
2022/08/27 13:48:29;;;;;;;28.65;3.63;;;29.20;99.90;;;;;;5207563;28;20033;-76
2022/08/27 13:51:00;;;;;;;22.65;3.47;;;29.30;99.90;;;;;;5203565;28;20033;-76
2022/08/27 13:56:26;;;;;;;894.78;104.93;;;29.30;99.90;;;;;;5171511;28;20386;-76
2022/08/27 13:59:08;;;;;;;17.08;3.55;;;29.50;99.90;;;;;;5206151;28;20079;-76
2022/08/27 14:02:01;;;;;;;20.02;3.33;;;29.40;99.90;;;;;;5206528;28;20037;-76
2022/08/27 14:04:39;;;;;;;31.45;4.78;;;29.10;99.90;;;;;;5204005;28;20116;-75
2022/08/27 14:07:25;;;;;;;208.43;14.82;;;28.90;99.90;;;;;;5207120;28;20124;-75
2022/08/27 14:10:23;;;;;;;14.98;3.90;;;28.50;99.90;;;;;;5200814;28;20025;-75
2022/08/27 14:13:22;;;;;;;25.60;3.88;;;28.70;99.90;;;;;;5206911;28;20374;-76
2022/08/27 14:15:56;;;;;;;16.17;3.17;;;29.20;99.90;;;;;;5196964;28;20048;-76
2022/08/27 14:18:35;;;;;;;17.92;3.40;;;29.20;99.90;;;;;;5206045;28;20026;-75
2022/08/27 14:21:06;;;;;;;15.38;3.80;;;29.00;99.90;;;;;;5206929;28;20144;-76
2022/08/27 14:23:36;;;;;;;22.42;3.55;;;28.70;99.90;;;;;;5206367;28;20100;-76
2022/08/27 14:26:08;;;;;;;20.98;4.30;;;28.50;99.90;;;;;;5206978;28;20052;-76
2022/08/27 14:28:38;;;;;;;19.13;4.15;;;28.30;99.90;;;;;;5205713;28;20033;-76
2022/08/27 14:31:10;;;;;;;14.05;3.72;;;28.30;99.90;;;;;;5193961;28;20100;-76
2022/08/27 14:33:41;;;;;;;17.17;4.35;;;28.40;99.90;;;;;;5203968;28;20100;-76
2022/08/27 14:36:13;;;;;;;19.80;3.70;;;28.10;99.90;;;;;;5206729;28;20032;-76
2022/08/27 14:38:46;;;;;;;20.60;4.60;;;28.00;99.90;;;;;;5206917;28;20025;-77
2022/08/27 14:41:19;;;;;;;19.55;4.30;;;27.90;99.90;;;;;;5194353;28;20072;-77
2022/08/27 14:43:50;;;;;;;13.77;4.10;;;27.90;99.90;;;;;;5206267;28;20115;-77
2022/08/27 14:46:34;;;;;;;16.23;4.80;;;27.70;99.90;;;;;;5206415;28;20029;-75
2022/08/27 14:49:13;;;;;;;18.70;4.32;;;27.70;99.90;;;;;;5205558;28;20175;-76
2022/08/27 14:51:44;;;;;;;11.75;3.80;;;27.50;99.90;;;;;;5205052;28;20025;-76
2022/08/27 14:54:15;;;;;;;17.10;4.60;;;27.30;99.90;;;;;;5204756;28;20057;-76
2022/08/27 14:56:46;;;;;;;18.25;4.30;;;27.20;99.90;;;;;;5199205;28;20056;-76
2022/08/27 14:59:17;;;;;;;17.73;4.40;;;27.20;99.90;;;;;;5181218;28;20037;-77
2022/08/27 15:01:49;;;;;;;23.55;5.05;;;27.20;99.90;;;;;;5185418;28;20037;-77
2022/08/27 15:04:20;;;;;;;16.45;3.92;;;26.90;99.90;;;;;;5195348;28;20097;-77
2022/08/27 15:06:51;;;;;;;17.02;4.10;;;26.80;99.90;;;;;;5204468;28;20485;-76
2022/08/27 15:09:22;;;;;;;16.50;4.30;;;26.80;99.90;;;;;;5188973;28;20385;-76
2022/08/27 15:11:56;;;;;;;14.25;3.92;;;26.80;99.90;;;;;;5194364;28;20501;-77
2022/08/27 15:14:33;;;;;;;19.98;4.50;;;27.00;99.90;;;;;;5203272;28;20025;-76
2022/08/27 15:17:05;;;;;;;15.45;4.15;;;26.90;99.90;;;;;;5193934;28;20095;-75
2022/08/27 15:19:36;;;;;;;16.98;5.05;;;26.90;99.90;;;;;;5188231;28;20030;-76
2022/08/27 15:22:22;;;;;;;17.55;3.90;;;27.00;99.90;;;;;;5192834;28;20548;-78
2022/08/27 15:24:55;;;;;;;17.85;5.13;;;26.90;99.90;;;;;;5194837;28;20039;-76
2022/08/27 15:27:28;;;;;;;17.55;4.90;;;26.80;99.90;;;;;;5205676;28;20101;-75
2022/08/27 15:29:59;;;;;;;20.70;4.80;;;26.80;99.90;;;;;;5202308;28;20033;-76
2022/08/27 15:32:37;;;;;;;18.40;4.80;;;26.70;99.90;;;;;;5200963;28;20034;-76
2022/08/27 15:35:12;;;;;;;18.27;5.27;;;26.80;99.90;;;;;;5204987;28;20500;-76
2022/08/27 15:37:44;;;;;;;14.27;5.18;;;26.70;99.90;;;;;;5204351;28;20024;-76
2022/08/27 15:40:16;;;;;;;16.30;4.78;;;26.60;99.90;;;;;;5205393;28;20140;-78
2022/08/27 15:42:52;;;;;;;19.17;5.07;;;26.60;99.90;;;;;;5197626;28;20018;-76
2022/08/27 15:45:23;;;;;;;19.42;8.27;;;26.60;99.90;;;;;;5204732;28;20029;-77
2022/08/27 15:47:56;;;;;;;21.60;5.72;;;26.60;99.90;;;;;;5203773;28;20021;-75
2022/08/27 15:50:28;;;;;;;12.75;4.97;;;26.50;99.90;;;;;;5205701;28;20060;-77
2022/08/27 15:53:02;;;;;;;18.00;4.90;;;26.30;99.90;;;;;;5204919;28;20105;-76
2022/08/27 15:55:39;;;;;;;26.20;5.80;;;26.20;99.90;;;;;;5205766;28;20033;-77
2022/08/27 15:58:11;;;;;;;19.92;5.85;;;26.20;99.90;;;;;;5204714;28;20048;-77
2022/08/27 16:00:42;;;;;;;21.67;7.00;;;26.10;99.90;;;;;;5205648;28;20347;-75
2022/08/27 16:03:15;;;;;;;22.98;5.75;;;26.10;99.90;;;;;;5205401;28;20014;-76
2022/08/27 16:05:46;;;;;;;18.52;5.90;;;26.00;99.90;;;;;;5203397;28;20087;-76
2022/08/27 16:08:17;;;;;;;20.70;5.88;;;25.40;99.90;;;;;;5205813;28;20377;-77
2022/08/27 16:10:48;;;;;;;17.48;6.10;;;25.20;99.90;;;;;;5204167;28;20046;-76
2022/08/27 16:13:20;;;;;;;15.05;5.45;;;25.10;99.90;;;;;;5205269;28;20079;-76
2022/08/27 16:15:51;;;;;;;26.52;5.78;;;24.90;99.90;;;;;;5189760;28;20113;-76
2022/08/27 16:18:28;;;;;;;22.30;6.47;;;25.20;99.90;;;;;;5205037;28;20024;-76
2022/08/27 16:21:01;;;;;;;17.98;6.25;;;25.10;99.90;;;;;;5205713;28;20376;-77
2022/08/27 16:23:33;;;;;;;18.17;5.97;;;25.00;99.90;;;;;;5204527;28;20509;-77
2022/08/27 16:26:04;;;;;;;16.38;6.20;;;24.70;99.90;;;;;;5180369;28;20372;-76
2022/08/27 16:28:35;;;;;;;24.05;7.10;;;24.40;99.90;;;;;;5205957;28;20017;-76
2022/08/27 16:31:06;;;;;;;18.67;6.80;;;24.40;99.90;;;;;;5204119;28;20034;-77
2022/08/27 16:33:37;;;;;;;20.35;6.35;;;24.30;99.90;;;;;;5202783;28;20071;-77
2022/08/27 16:36:09;;;;;;;21.17;7.20;;;24.50;99.90;;;;;;5205506;28;20683;-75
2022/08/27 16:38:40;;;;;;;17.50;6.53;;;24.50;99.90;;;;;;5205753;28;20474;-76
2022/08/27 16:41:12;;;;;;;18.45;6.35;;;24.50;99.90;;;;;;5193364;28;20042;-76
2022/08/27 16:43:44;;;;;;;18.65;6.97;;;24.50;99.90;;;;;;5188002;28;20029;-76
2022/08/27 16:46:15;;;;;;;18.60;6.20;;;24.50;99.90;;;;;;5199017;28;20058;-76
2022/08/27 16:51:36;;;;;;;17.48;6.65;;;24.10;99.90;;;;;;5209457;28;20091;-76
2022/08/27 16:54:10;;;;;;;18.98;7.18;;;24.00;99.90;;;;;;5209419;28;20036;-76
2022/08/27 16:56:42;;;;;;;15.63;6.18;;;24.10;99.90;;;;;;5209088;28;20109;-76
2022/08/27 16:59:13;;;;;;;24.67;6.53;;;23.90;99.90;;;;;;5207975;28;20565;-76
2022/08/27 17:01:48;;;;;;;23.98;7.43;;;23.60;99.90;;;;;;5208258;28;20472;-76
2022/08/27 17:04:20;;;;;;;26.02;7.10;;;23.50;99.90;;;;;;5209440;28;20025;-77
2022/08/27 17:06:51;;;;;;;20.98;7.07;;;23.60;99.90;;;;;;5207702;28;20381;-78
2022/08/27 17:09:22;;;;;;;21.05;6.53;;;23.80;99.90;;;;;;5208783;28;20071;-76
2022/08/27 17:11:56;;;;;;;22.77;7.10;;;23.70;99.90;;;;;;5203293;28;20063;-76
2022/08/27 17:14:36;;;;;;;19.92;7.43;;;23.40;99.90;;;;;;5208648;28;20079;-77
2022/08/27 17:17:07;;;;;;;25.58;7.10;;;23.50;99.90;;;;;;5207411;28;20481;-76
2022/08/27 17:19:38;;;;;;;18.30;7.43;;;23.40;99.90;;;;;;5208877;28;20381;-76
2022/08/27 17:22:10;;;;;;;22.00;7.45;;;23.30;99.90;;;;;;5207713;28;20037;-76
2022/08/27 17:24:41;;;;;;;15.65;7.03;;;23.40;99.90;;;;;;5208493;28;20079;-76
2022/08/27 17:27:11;;;;;;;21.20;6.88;;;23.30;99.90;;;;;;5208398;28;20033;-76
2022/08/27 17:29:42;;;;;;;23.63;7.22;;;23.20;99.90;;;;;;5208479;28;20030;-76
2022/08/27 17:32:13;;;;;;;11.65;6.63;;;23.10;99.90;;;;;;5208851;28;20049;-76